Time;durP1;ratioP1;P1;durP2;ratioP2;P2;SDS_P1;SDS_P2;PMS_P1;PMS_P2;Temp;Humidity;BMP_temperature;BMP_pressure;BME280_temperature;BME280_humidity;BME280_pressure;Samples;Min_cycle;Max_cycle;Signal;HPM_P1;HPM_P2
2022/07/25 00:00:08;;;;;;;2.80;2.60;;;;;;;32.71;29.93;99003.61;1882505;75;28113;-54
2022/07/25 00:02:56;;;;;;;2.90;2.40;;;;;;;32.73;29.96;99004.11;1884273;75;28154;-56
2022/07/25 00:05:44;;;;;;;2.42;2.33;;;;;;;32.70;30.01;99007.52;1884165;75;28257;-56
2022/07/25 00:08:32;;;;;;;2.70;2.60;;;;;;;32.61;29.82;99006.61;1884156;75;28225;-55
2022/07/25 00:11:21;;;;;;;2.92;2.40;;;;;;;32.54;29.56;99000.66;1884216;75;28117;-56
2022/07/25 00:14:10;;;;;;;2.80;2.60;;;;;;;32.44;29.46;98996.67;1880324;75;28103;-55
2022/07/25 00:16:58;;;;;;;2.67;2.45;;;;;;;32.28;29.59;98996.75;1877555;75;28175;-56
2022/07/25 00:19:46;;;;;;;2.40;2.30;;;;;;;32.24;29.56;99001.29;1877602;75;28148;-55
2022/07/25 00:22:35;;;;;;;2.67;2.40;;;;;;;32.15;29.71;99004.55;1877879;75;28216;-54
2022/07/25 00:25:23;;;;;;;2.50;2.40;;;;;;;32.10;29.75;99004.64;1884410;75;28108;-53
2022/07/25 00:28:12;;;;;;;2.83;2.52;;;;;;;32.04;29.89;99005.89;1884214;75;28168;-53
2022/07/25 00:31:01;;;;;;;2.70;2.60;;;;;;;31.98;29.93;99002.95;1884281;75;28281;-57
2022/07/25 00:33:49;;;;;;;2.67;2.47;;;;;;;31.90;30.03;98998.09;1879914;75;28107;-57
2022/07/25 00:36:38;;;;;;;2.58;2.47;;;;;;;31.81;30.02;98998.55;1863881;76;28214;-57
2022/07/25 00:39:26;;;;;;;2.30;2.20;;;;;;;31.78;30.09;98993.05;1884249;75;28108;-58
2022/07/25 00:42:15;;;;;;;2.50;2.30;;;;;;;31.77;30.15;98996.94;1883523;75;28335;-58
2022/07/25 00:45:05;;;;;;;2.62;2.52;;;;;;;31.83;30.06;98999.06;1870731;75;28269;-55
2022/07/25 00:47:53;;;;;;;2.52;2.33;;;;;;;31.74;30.25;98993.97;1865622;75;28229;-57
2022/07/25 00:50:42;;;;;;;2.58;2.40;;;;;;;31.69;30.32;98995.45;1868478;75;31083;-58
2022/07/25 00:53:31;;;;;;;2.65;2.45;;;;;;;31.69;30.44;98999.61;1884294;75;28665;-56
2022/07/25 00:56:20;;;;;;;2.33;2.22;;;;;;;31.67;30.43;98995.73;1884223;75;28146;-55
2022/07/25 00:59:09;;;;;;;3.30;2.40;;;;;;;31.74;30.38;99000.33;1864759;75;28116;-55
2022/07/25 01:01:57;;;;;;;2.70;2.50;;;;;;;31.74;30.39;98993.97;1884217;75;28121;-52
2022/07/25 01:04:46;;;;;;;2.40;2.30;;;;;;;31.78;30.45;98991.66;1884287;75;28104;-52
2022/07/25 01:07:35;;;;;;;2.60;2.40;;;;;;;31.81;30.36;98994.38;1877951;76;28180;-56
2022/07/25 01:10:24;;;;;;;2.60;2.45;;;;;;;31.86;30.33;99001.20;1857871;76;28121;-54
2022/07/25 01:13:13;;;;;;;2.58;2.40;;;;;;;31.90;30.36;99002.26;1877737;76;28131;-55
2022/07/25 01:16:02;;;;;;;2.40;2.20;;;;;;;31.96;30.39;99002.40;1875201;76;28684;-52
2022/07/25 01:18:50;;;;;;;2.42;2.33;;;;;;;31.97;30.44;99002.11;1861854;76;31193;-54
2022/07/25 01:21:42;;;;;;;2.50;2.30;;;;;;;32.00;30.49;99002.06;1856062;76;28207;-55
2022/07/25 01:24:31;;;;;;;2.25;2.15;;;;;;;32.01;30.53;99000.95;1877807;76;28163;-55
2022/07/25 01:27:19;;;;;;;2.22;2.12;;;;;;;32.03;30.60;99000.06;1877734;76;28120;-56
2022/07/25 01:30:10;;;;;;;2.42;2.33;;;;;;;32.06;30.68;98996.68;1877794;76;28167;-54
2022/07/25 01:32:58;;;;;;;2.37;2.27;;;;;;;32.07;30.80;99002.48;1877453;76;28163;-53
2022/07/25 01:35:47;;;;;;;2.30;2.20;;;;;;;32.06;30.85;99002.23;1877687;76;28164;-55
2022/07/25 01:38:36;;;;;;;2.43;2.27;;;;;;;32.08;30.89;98998.02;1857479;76;28307;-54
2022/07/25 01:41:24;;;;;;;2.40;2.20;;;;;;;32.09;30.91;99003.02;1859287;76;28214;-53
2022/07/25 01:44:12;;;;;;;2.50;2.30;;;;;;;32.09;30.90;99001.03;1877697;76;28159;-56
2022/07/25 01:47:00;;;;;;;2.40;2.30;;;;;;;32.04;30.93;98995.58;1875298;76;28112;-55
2022/07/25 01:49:49;;;;;;;2.70;2.50;;;;;;;32.08;30.96;99000.80;1862946;76;28130;-56
2022/07/25 01:52:39;;;;;;;2.50;2.40;;;;;;;32.12;31.00;99004.33;1846098;77;28227;-54
2022/07/25 01:55:27;;;;;;;2.53;2.37;;;;;;;32.12;31.03;99002.37;1873922;76;28234;-54
2022/07/25 01:58:16;;;;;;;2.80;2.50;;;;;;;32.14;31.07;99008.44;1876838;76;28330;-55
2022/07/25 02:01:06;;;;;;;2.35;2.25;;;;;;;32.14;31.06;99000.70;1861747;76;28128;-55
2022/07/25 02:03:54;;;;;;;2.50;2.40;;;;;;;32.12;31.05;99000.98;1856965;76;28168;-53
2022/07/25 02:06:43;;;;;;;2.75;2.55;;;;;;;32.15;30.98;99003.16;1874568;76;28189;-55
2022/07/25 02:09:31;;;;;;;2.80;2.60;;;;;;;32.12;30.96;99007.94;1846933;76;28227;-55
2022/07/25 02:12:20;;;;;;;2.70;2.58;;;;;;;32.10;31.01;99010.20;1851333;76;28240;-55
2022/07/25 02:15:09;;;;;;;2.87;2.70;;;;;;;32.08;31.07;99016.64;1868342;76;28102;-54
2022/07/25 02:17:58;;;;;;;2.65;2.55;;;;;;;32.02;30.82;99013.72;1868728;76;28164;-54
2022/07/25 02:20:46;;;;;;;2.60;2.40;;;;;;;32.00;30.89;99014.02;1868602;76;28118;-52
2022/07/25 02:23:35;;;;;;;2.67;2.47;;;;;;;31.94;30.84;99015.78;1851291;76;28117;-55
2022/07/25 02:26:23;;;;;;;2.30;2.20;;;;;;;31.90;30.78;99016.95;1868641;76;28501;-53
2022/07/25 02:29:12;;;;;;;2.50;2.40;;;;;;;31.90;30.88;99017.54;1868403;76;28113;-53
2022/07/25 02:32:00;;;;;;;2.40;2.20;;;;;;;31.87;30.75;99016.76;1868663;76;34038;-55
2022/07/25 02:34:48;;;;;;;2.80;2.60;;;;;;;31.85;30.57;99011.52;1834616;77;28232;-55
2022/07/25 02:37:37;;;;;;;2.33;2.22;;;;;;;31.82;30.54;99012.68;1863703;76;28114;-55
2022/07/25 02:40:25;;;;;;;2.80;2.60;;;;;;;31.82;30.55;99009.91;1868010;76;28175;-54
2022/07/25 02:43:13;;;;;;;2.50;2.30;;;;;;;31.84;30.64;99005.69;1849645;76;28179;-56
2022/07/25 02:46:02;;;;;;;2.40;2.30;;;;;;;31.83;30.62;99009.62;1868555;76;28548;-54
2022/07/25 02:48:50;;;;;;;2.95;2.47;;;;;;;31.86;30.66;99010.37;1868547;76;28156;-52
2022/07/25 02:51:38;;;;;;;2.70;2.50;;;;;;;31.86;30.67;99005.38;1848117;76;28280;-54
2022/07/25 02:54:27;;;;;;;2.47;2.37;;;;;;;31.87;30.69;99005.64;1850982;76;28269;-55
2022/07/25 02:57:15;;;;;;;2.70;2.50;;;;;;;31.90;30.71;99007.81;1868642;76;28603;-54
2022/07/25 03:00:06;;;;;;;2.50;2.40;;;;;;;31.93;30.76;99005.78;1865727;76;28220;-54
2022/07/25 03:02:54;;;;;;;2.43;2.33;;;;;;;31.93;30.75;99001.62;1854804;76;28147;-55
2022/07/25 03:05:43;;;;;;;2.50;2.40;;;;;;;31.96;30.56;99004.66;1843010;76;28160;-50
2022/07/25 03:08:31;;;;;;;2.37;2.25;;;;;;;31.94;30.62;99004.67;1868492;75;28197;-55
2022/07/25 03:11:19;;;;;;;2.35;2.25;;;;;;;31.96;30.58;99005.18;1845963;76;28261;-55
2022/07/25 03:14:11;;;;;;;2.50;2.40;;;;;;;31.93;30.56;99000.23;1841379;77;28243;-55
2022/07/25 03:16:59;;;;;;;2.42;2.33;;;;;;;31.91;30.50;98998.33;1838008;77;28121;-55
2022/07/25 03:19:48;;;;;;;2.70;2.50;;;;;;;31.93;30.63;98997.45;1839808;76;28211;-53
2022/07/25 03:22:36;;;;;;;2.62;2.45;;;;;;;31.92;30.59;99002.21;1846620;77;33181;-55
2022/07/25 03:25:24;;;;;;;2.60;2.40;;;;;;;31.93;30.57;99000.23;1868576;76;28208;-55
2022/07/25 03:28:13;;;;;;;2.50;2.40;;;;;;;31.91;30.53;99004.72;1857654;76;28270;-54
2022/07/25 03:31:02;;;;;;;2.55;2.45;;;;;;;31.92;30.52;99004.98;1862785;76;28110;-55
2022/07/25 03:33:50;;;;;;;2.40;2.30;;;;;;;31.92;30.55;99004.16;1868508;76;28145;-53
2022/07/25 03:36:38;;;;;;;2.40;2.30;;;;;;;31.89;30.48;99001.98;1851925;76;28260;-54
2022/07/25 03:39:28;;;;;;;2.50;2.40;;;;;;;31.91;30.57;99007.50;1856903;77;28235;-52
2022/07/25 03:42:16;;;;;;;2.70;2.50;;;;;;;31.90;30.57;99010.00;1868380;76;28153;-55
2022/07/25 03:45:06;;;;;;;2.52;2.33;;;;;;;31.90;30.51;99009.20;1868491;76;28168;-53
2022/07/25 03:47:54;;;;;;;2.65;2.45;;;;;;;31.88;30.38;99011.47;1868810;76;28138;-52
2022/07/25 03:50:42;;;;;;;2.45;2.35;;;;;;;31.87;30.53;99009.81;1868632;76;28645;-54
2022/07/25 03:53:30;;;;;;;2.62;2.50;;;;;;;31.85;30.50;99007.35;1846667;76;28322;-54
2022/07/25 03:56:19;;;;;;;2.52;2.42;;;;;;;31.87;30.58;99013.42;1868681;76;28195;-53
2022/07/25 03:59:10;;;;;;;2.67;2.50;;;;;;;31.89;30.52;99011.70;1839039;77;28114;-53
2022/07/25 04:01:58;;;;;;;2.45;2.35;;;;;;;31.88;30.58;99007.30;1856660;77;31070;-53
2022/07/25 04:04:46;;;;;;;2.95;2.75;;;;;;;31.89;30.55;99005.59;1868693;76;28165;-55
2022/07/25 04:07:36;;;;;;;2.33;2.23;;;;;;;31.85;30.51;99010.13;1868693;76;28107;-55
2022/07/25 04:10:24;;;;;;;2.65;2.45;;;;;;;31.85;30.64;99006.52;1849687;76;28141;-54
2022/07/25 04:13:12;;;;;;;2.62;2.42;;;;;;;31.86;30.67;99007.59;1868592;76;33099;-55
2022/07/25 04:16:01;;;;;;;2.50;2.40;;;;;;;31.85;30.63;99004.58;1846720;76;28304;-56
2022/07/25 04:18:51;;;;;;;2.40;2.30;;;;;;;31.87;30.65;99008.42;1868703;76;28175;-55
2022/07/25 04:21:39;;;;;;;4.50;2.40;;;;;;;31.91;30.64;99013.61;1849338;76;28201;-53
2022/07/25 04:24:27;;;;;;;2.50;2.30;;;;;;;31.96;30.56;99015.77;1862120;76;28261;-53
2022/07/25 04:27:16;;;;;;;2.50;2.40;;;;;;;32.03;30.46;99015.34;1857655;76;28160;-53
2022/07/25 04:30:04;;;;;;;2.80;2.60;;;;;;;32.04;30.49;99013.64;1852327;76;28246;-57
2022/07/25 04:32:53;;;;;;;2.60;2.50;;;;;;;31.98;30.50;99014.06;1868608;76;28240;-58
2022/07/25 04:35:42;;;;;;;2.98;2.77;;;;;;;31.90;30.58;99011.98;1868722;76;28223;-57
2022/07/25 04:38:30;;;;;;;2.75;2.55;;;;;;;31.83;30.63;99006.84;1868403;76;28121;-57
2022/07/25 04:41:19;;;;;;;3.30;2.60;;;;;;;31.73;30.70;99012.58;1849599;76;28129;-56
2022/07/25 04:44:07;;;;;;;2.62;2.50;;;;;;;31.75;30.83;99015.04;1868555;76;28236;-56
2022/07/25 04:46:55;;;;;;;2.80;2.60;;;;;;;31.73;30.84;99012.58;1846567;76;28238;-56
2022/07/25 04:49:43;;;;;;;2.80;2.60;;;;;;;31.67;30.96;99010.21;1868650;76;28226;-57
2022/07/25 04:52:32;;;;;;;3.25;2.95;;;;;;;31.64;31.23;99010.81;1868366;76;28169;-57
2022/07/25 04:55:20;;;;;;;2.90;2.70;;;;;;;31.58;31.35;99006.50;1846605;76;28342;-53
2022/07/25 04:58:09;;;;;;;2.90;2.70;;;;;;;31.57;31.46;99000.67;1868508;76;28157;-55
2022/07/25 05:00:58;;;;;;;2.90;2.70;;;;;;;31.56;31.46;99000.40;1868666;76;28250;-55
2022/07/25 05:03:46;;;;;;;2.95;2.75;;;;;;;31.56;31.34;99008.17;1868567;76;28150;-57
2022/07/25 05:06:35;;;;;;;2.77;2.58;;;;;;;31.57;31.22;99004.84;1868533;76;28414;-56
2022/07/25 05:09:23;;;;;;;3.00;2.80;;;;;;;31.57;31.20;99006.23;1868957;75;28156;-58
2022/07/25 05:12:11;;;;;;;2.70;2.50;;;;;;;31.55;31.26;99004.33;1859440;76;28198;-58
2022/07/25 05:15:00;;;;;;;2.83;2.62;;;;;;;31.50;31.45;99007.19;1878184;76;28101;-56
2022/07/25 05:17:49;;;;;;;3.00;2.80;;;;;;;31.45;31.67;99004.50;1877930;76;28250;-54
2022/07/25 05:20:37;;;;;;;2.90;2.62;;;;;;;31.42;31.83;99005.89;1878327;76;28691;-57
2022/07/25 05:23:26;;;;;;;2.75;2.65;;;;;;;31.43;31.95;99006.76;1846190;77;28290;-54
2022/07/25 05:26:14;;;;;;;3.67;2.90;;;;;;;31.49;31.86;99004.14;1873472;76;28136;-57
2022/07/25 05:29:03;;;;;;;2.85;2.65;;;;;;;31.51;31.75;99001.31;1877852;76;28261;-57
2022/07/25 05:31:51;;;;;;;3.00;2.80;;;;;;;31.50;31.68;99009.41;1877938;76;28145;-56
2022/07/25 05:34:40;;;;;;;2.90;2.70;;;;;;;31.55;31.60;99000.98;1878041;76;28684;-57
2022/07/25 05:37:28;;;;;;;3.30;3.00;;;;;;;31.52;31.63;99006.31;1877911;76;30188;-56
2022/07/25 05:40:18;;;;;;;2.90;2.70;;;;;;;31.53;31.57;99006.59;1877902;76;28196;-59
2022/07/25 05:43:06;;;;;;;2.70;2.60;;;;;;;31.54;31.73;99006.27;1868412;76;28561;-59
2022/07/25 05:46:03;;;;;;;3.00;2.70;;;;;;;31.51;31.75;99009.65;1878017;76;28237;-59
2022/07/25 05:48:51;;;;;;;3.10;2.90;;;;;;;31.44;31.57;99008.42;1874852;74;28235;-59
2022/07/25 05:51:40;;;;;;;3.65;2.83;;;;;;;31.37;31.54;99014.31;1870867;74;28245;-59
2022/07/25 05:54:29;;;;;;;2.95;2.75;;;;;;;31.31;31.64;99007.21;1860575;76;28240;-60
2022/07/25 05:57:17;;;;;;;3.07;2.87;;;;;;;31.36;31.59;99009.34;1878051;76;28116;-59
2022/07/25 06:00:07;;;;;;;2.90;2.70;;;;;;;31.40;31.54;99000.66;1878042;76;28160;-59
2022/07/25 06:02:59;;;;;;;2.90;2.70;;;;;;;31.45;31.52;99008.66;1873770;74;28207;-59
2022/07/25 06:05:47;;;;;;;3.12;2.92;;;;;;;31.46;31.50;99004.18;1877870;76;28106;-59
2022/07/25 06:08:37;;;;;;;3.00;2.70;;;;;;;31.48;31.50;99009.45;1874413;74;28252;-60
2022/07/25 06:11:27;;;;;;;2.90;2.70;;;;;;;31.53;31.49;99009.36;1852941;74;28676;-60
2022/07/25 06:14:16;;;;;;;3.15;2.60;;;;;;;31.50;31.56;99003.85;1868550;76;28183;-56
2022/07/25 06:17:04;;;;;;;2.80;2.60;;;;;;;31.53;31.58;99003.81;1860183;76;28566;-58
2022/07/25 06:19:53;;;;;;;2.87;2.67;;;;;;;31.50;31.68;99005.24;1868491;76;28223;-58
2022/07/25 06:22:41;;;;;;;3.10;2.90;;;;;;;31.47;31.72;99010.56;1861019;76;32002;-57
2022/07/25 06:25:30;;;;;;;3.00;2.80;;;;;;;31.46;31.79;99001.41;1868590;74;28301;-57
2022/07/25 06:28:18;;;;;;;2.85;2.65;;;;;;;31.47;31.77;99006.40;1836524;75;28478;-57
2022/07/25 06:31:07;;;;;;;2.90;2.70;;;;;;;31.48;31.87;99001.95;1861401;74;28101;-58
2022/07/25 06:33:56;;;;;;;2.77;2.60;;;;;;;31.54;32.00;98996.55;1868529;76;28113;-54
2022/07/25 06:36:44;;;;;;;3.42;2.72;;;;;;;31.55;31.98;99005.16;1856117;74;28250;-57
2022/07/25 06:39:32;;;;;;;3.10;2.90;;;;;;;31.56;32.13;99005.39;1862927;76;28179;-59
2022/07/25 06:42:20;;;;;;;3.10;2.90;;;;;;;31.54;32.21;98999.33;1850985;77;28632;-58
2022/07/25 06:45:12;;;;;;;3.43;2.90;;;;;;;31.56;32.29;99002.62;1856519;75;28121;-57
2022/07/25 06:48:01;;;;;;;3.30;2.95;;;;;;;31.54;32.22;98997.11;1847247;75;28349;-58
2022/07/25 06:50:50;;;;;;;2.80;2.70;;;;;;;31.54;32.19;99002.66;1876322;74;28300;-57
2022/07/25 06:53:39;;;;;;;3.53;2.80;;;;;;;31.52;31.82;99006.31;1872185;75;28416;-57
2022/07/25 06:56:30;;;;;;;3.00;2.80;;;;;;;31.45;31.81;99001.72;1862531;75;28191;-58
2022/07/25 06:59:17;;;;;;;2.75;2.65;;;;;;;31.44;31.95;98999.50;1886459;75;28222;-57
2022/07/25 07:02:05;;;;;;;3.25;3.00;;;;;;;31.43;32.02;98997.05;1861361;75;28376;-58
2022/07/25 07:04:54;;;;;;;3.08;2.83;;;;;;;31.47;32.03;98999.46;1856738;77;28123;-55
2022/07/25 07:07:43;;;;;;;3.25;2.95;;;;;;;31.45;32.07;99001.72;1840106;75;28117;-58
2022/07/25 07:10:31;;;;;;;3.08;2.85;;;;;;;31.46;32.21;99004.18;1851102;77;28618;-57
2022/07/25 07:13:22;;;;;;;2.80;2.70;;;;;;;31.50;32.25;99000.25;1868501;76;38535;-59
2022/07/25 07:16:09;;;;;;;3.17;2.87;;;;;;;31.54;32.23;98995.16;1868532;76;28312;-59
2022/07/25 07:18:58;;;;;;;3.33;3.12;;;;;;;31.56;32.09;98989.30;1868210;76;28169;-59
2022/07/25 07:21:48;;;;;;;3.27;3.07;;;;;;;31.60;31.87;98989.77;1857767;76;28241;-61
2022/07/25 07:24:36;;;;;;;3.30;3.00;;;;;;;31.61;31.91;98987.81;1857712;76;28258;-61
2022/07/25 07:27:24;;;;;;;2.80;2.70;;;;;;;31.59;31.86;98982.58;1833266;78;28253;-59
2022/07/25 07:30:16;;;;;;;3.67;3.00;;;;;;;31.62;31.77;98983.92;1851135;76;28253;-59
2022/07/25 07:33:05;;;;;;;3.15;2.95;;;;;;;31.61;31.60;98978.92;1868295;76;28151;-60
2022/07/25 07:35:55;;;;;;;3.62;3.12;;;;;;;31.57;31.64;98984.84;1868488;76;28169;-59
2022/07/25 07:38:44;;;;;;;3.20;3.00;;;;;;;31.60;31.56;98971.71;1868473;76;28143;-59
2022/07/25 07:41:33;;;;;;;3.10;2.90;;;;;;;31.58;31.32;98974.56;1873170;75;28274;-58
2022/07/25 07:44:21;;;;;;;3.10;2.90;;;;;;;31.57;31.23;98975.69;1868576;76;28191;-59
2022/07/25 07:47:09;;;;;;;3.62;2.98;;;;;;;31.53;31.43;98983.78;1868370;76;28151;-59
2022/07/25 07:49:58;;;;;;;4.25;2.92;;;;;;;31.45;31.46;98980.34;1868732;76;28201;-59
2022/07/25 07:52:47;;;;;;;3.92;2.95;;;;;;;31.43;31.46;98990.94;1837051;76;28166;-59
2022/07/25 07:55:44;;;;;;;3.53;3.00;;;;;;;31.46;31.33;98983.95;1867115;74;28187;-58
2022/07/25 07:58:32;;;;;;;3.02;2.83;;;;;;;31.44;31.29;98994.54;1868638;76;30152;-59
2022/07/25 08:01:21;;;;;;;3.10;2.90;;;;;;;31.40;31.03;98984.00;1868271;76;28140;-59
2022/07/25 08:04:09;;;;;;;3.70;3.50;;;;;;;31.32;31.03;98983.89;1851291;76;28147;-60
2022/07/25 08:06:58;;;;;;;3.30;3.10;;;;;;;31.33;31.02;98982.75;1868498;76;28194;-59
2022/07/25 08:09:46;;;;;;;3.87;3.10;;;;;;;31.29;31.01;98977.00;1868431;76;28124;-60
2022/07/25 08:12:37;;;;;;;3.40;3.10;;;;;;;31.33;30.94;98975.81;1855212;76;28172;-59
2022/07/25 08:15:26;;;;;;;4.47;3.30;;;;;;;31.36;30.78;98971.87;1850141;76;28387;-59
2022/07/25 08:18:16;;;;;;;4.40;3.22;;;;;;;31.26;30.66;98967.05;1864422;74;28179;-59
2022/07/25 08:21:05;;;;;;;3.22;3.00;;;;;;;31.27;30.63;98970.90;1867080;76;28198;-59
2022/07/25 08:23:54;;;;;;;3.20;2.90;;;;;;;31.27;30.38;98966.73;1868793;76;28269;-59
2022/07/25 08:26:42;;;;;;;3.10;2.87;;;;;;;31.29;30.34;98959.52;1862643;75;28150;-58
2022/07/25 08:29:30;;;;;;;3.50;3.22;;;;;;;31.35;30.14;98961.88;1846109;76;28117;-59
2022/07/25 08:32:19;;;;;;;3.63;3.33;;;;;;;31.43;30.18;98970.67;1868683;76;28198;-58
2022/07/25 08:35:08;;;;;;;5.05;2.92;;;;;;;31.46;30.18;98972.25;1862714;74;28807;-58
2022/07/25 08:37:57;;;;;;;3.40;2.92;;;;;;;31.46;30.17;98964.52;1857008;74;28057;-57
2022/07/25 08:40:46;;;;;;;3.40;3.10;;;;;;;31.45;30.24;98973.96;1850351;74;28433;-57
2022/07/25 08:43:36;;;;;;;3.17;2.98;;;;;;;31.34;30.36;98976.88;1858808;74;28288;-59
2022/07/25 08:46:27;;;;;;;4.37;3.08;;;;;;;31.29;30.54;98971.45;1859602;76;28254;-59
2022/07/25 08:49:16;;;;;;;3.10;2.90;;;;;;;31.33;30.72;98964.15;1854451;76;28206;-55
2022/07/25 08:52:07;;;;;;;4.35;2.90;;;;;;;31.35;31.00;98963.27;1862418;76;28164;-60
2022/07/25 08:54:56;;;;;;;3.45;3.08;;;;;;;31.39;31.40;98954.59;1858893;75;28195;-60
2022/07/25 08:57:44;;;;;;;2.75;2.55;;;;;;;31.45;31.60;98954.52;1852461;74;28233;-59
2022/07/25 09:00:33;;;;;;;2.90;2.70;;;;;;;31.48;31.71;98952.53;1857991;74;28345;-60
2022/07/25 09:03:22;;;;;;;3.00;2.80;;;;;;;31.53;31.75;98953.83;1874239;74;28543;-60
2022/07/25 09:06:16;;;;;;;2.85;2.65;;;;;;;31.59;31.61;98944.27;1867839;76;28164;-61
2022/07/25 09:09:04;;;;;;;2.70;2.50;;;;;;;31.66;31.31;98943.29;1864536;76;28164;-60
2022/07/25 09:11:53;;;;;;;3.30;3.00;;;;;;;31.66;31.27;98943.29;1888885;74;28100;-59
2022/07/25 09:14:43;;;;;;;3.00;2.80;;;;;;;31.70;31.28;98944.31;1873062;76;28257;-60
2022/07/25 09:17:31;;;;;;;2.90;2.70;;;;;;;31.69;31.35;98934.35;1878090;76;28168;-61
2022/07/25 09:20:20;;;;;;;3.10;2.90;;;;;;;31.74;31.26;98936.44;1859360;76;28202;-60
2022/07/25 09:23:11;;;;;;;2.87;2.67;;;;;;;31.77;31.31;98928.89;1878138;76;28578;-60
2022/07/25 09:26:14;;;;;;;2.97;2.77;;;;;;;31.82;31.31;98937.12;1877906;74;28230;-60
2022/07/25 09:29:02;;;;;;;2.90;2.70;;;;;;;31.76;31.41;98934.77;1865891;74;28267;-60
2022/07/25 09:31:52;;;;;;;3.13;2.90;;;;;;;31.74;31.49;98943.97;1879083;74;28055;-60
2022/07/25 09:34:43;;;;;;;2.72;2.62;;;;;;;31.75;31.42;98953.94;1888130;74;28107;-60
2022/07/25 09:37:31;;;;;;;3.17;2.87;;;;;;;31.77;31.13;98937.78;1882486;74;28223;-60
2022/07/25 09:40:20;;;;;;;3.30;3.00;;;;;;;31.85;30.95;98931.52;1877962;74;28084;-60
2022/07/25 09:43:09;;;;;;;3.25;2.90;;;;;;;31.86;30.96;98931.20;1897479;74;28119;-60
2022/07/25 09:45:57;;;;;;;3.30;3.00;;;;;;;31.94;30.86;98921.32;1877954;76;28184;-59
2022/07/25 09:48:47;;;;;;;3.70;2.87;;;;;;;32.04;30.83;98921.94;1878187;76;28139;-59
2022/07/25 09:51:36;;;;;;;2.77;2.57;;;;;;;32.07;30.77;98913.55;1865549;76;28115;-59
2022/07/25 09:54:25;;;;;;;3.90;2.80;;;;;;;32.10;30.68;98908.77;1878078;76;28137;-59
2022/07/25 09:57:13;;;;;;;3.05;2.75;;;;;;;32.16;30.42;98907.51;1872962;74;28640;-60
2022/07/25 10:00:03;;;;;;;2.92;2.72;;;;;;;32.20;30.17;98917.45;1870896;74;28178;-60
2022/07/25 10:03:17;;;;;;;2.90;2.70;;;;;;;32.21;30.03;98900.45;1875637;74;28406;-59
2022/07/25 10:06:25;;;;;;;2.90;2.80;;;;;;;32.25;29.89;98896.49;1859246;76;28330;-60
2022/07/25 10:09:15;;;;;;;2.72;2.55;;;;;;;32.23;29.61;98916.25;1855214;76;28705;-60
2022/07/25 10:12:06;;;;;;;2.80;2.60;;;;;;;32.21;29.59;98900.45;1884439;75;28970;-59
2022/07/25 10:15:10;;;;;;;3.35;3.05;;;;;;;32.32;29.59;98897.72;1875059;75;28149;-61
2022/07/25 10:18:07;;;;;;;4.42;2.83;;;;;;;32.36;29.66;98890.95;1868350;76;28207;-61
2022/07/25 10:21:10;;;;;;;3.05;2.85;;;;;;;32.40;29.56;98887.22;1868271;76;28353;-61
2022/07/25 10:24:04;;;;;;;3.20;2.90;;;;;;;32.49;29.57;98882.58;1855468;76;28124;-61
2022/07/25 10:26:53;;;;;;;3.10;2.90;;;;;;;32.55;29.58;98885.52;1869271;74;28179;-60
2022/07/25 10:29:42;;;;;;;3.00;2.80;;;;;;;32.65;29.39;98876.89;1870383;74;28167;-60
2022/07/25 10:32:34;;;;;;;3.20;2.95;;;;;;;32.67;29.31;98871.84;1861489;76;38491;-60
2022/07/25 10:35:24;;;;;;;2.90;2.70;;;;;;;32.73;29.25;98869.76;1849150;76;28861;-60
2022/07/25 10:38:12;;;;;;;2.97;2.77;;;;;;;32.79;28.90;98867.13;1828732;77;28226;-60
2022/07/25 10:41:07;;;;;;;2.72;2.52;;;;;;;32.84;28.61;98867.55;1834750;75;28235;-60
2022/07/25 10:44:01;;;;;;;2.95;2.67;;;;;;;32.92;28.05;98861.20;1856824;77;28129;-60
2022/07/25 10:46:50;;;;;;;2.70;2.60;;;;;;;32.96;27.84;98845.51;1856641;77;28119;-60
2022/07/25 10:49:48;;;;;;;3.00;2.70;;;;;;;32.97;27.76;98837.42;1856685;77;28184;-60
2022/07/25 10:52:42;;;;;;;2.98;2.77;;;;;;;32.97;27.92;98833.25;1828947;77;28271;-60
2022/07/25 10:55:30;;;;;;;2.63;2.50;;;;;;;32.96;27.97;98835.77;1857889;75;28148;-60
2022/07/25 10:58:18;;;;;;;2.52;2.40;;;;;;;32.92;28.16;98819.47;1856789;77;28134;-60
2022/07/25 11:01:08;;;;;;;2.52;2.42;;;;;;;32.93;28.25;98826.69;1841774;75;28190;-60
2022/07/25 11:03:59;;;;;;;2.60;2.40;;;;;;;32.89;28.37;98820.09;1868255;76;28158;-60
2022/07/25 11:06:48;;;;;;;2.75;2.58;;;;;;;32.87;28.52;98809.86;1868369;76;28293;-60
2022/07/25 11:09:36;;;;;;;2.77;2.67;;;;;;;32.85;28.62;98816.31;1847860;77;28191;-60
2022/07/25 11:12:25;;;;;;;2.70;2.60;;;;;;;32.84;28.73;98817.48;1851856;76;28122;-60
2022/07/25 11:15:14;;;;;;;2.67;2.58;;;;;;;32.84;28.83;98806.34;1851347;76;28450;-60
2022/07/25 11:18:03;;;;;;;3.60;2.70;;;;;;;32.81;28.93;98803.63;1860491;76;28230;-60
2022/07/25 11:21:00;;;;;;;2.67;2.50;;;;;;;32.80;29.00;98799.75;1868843;76;28119;-60
2022/07/25 11:23:53;;;;;;;2.50;2.40;;;;;;;32.80;29.13;98799.75;1835555;77;28298;-61
2022/07/25 11:26:50;;;;;;;2.50;2.30;;;;;;;32.77;29.19;98794.26;1866813;75;28799;-62
2022/07/25 11:29:39;;;;;;;3.10;2.80;;;;;;;32.74;29.35;98796.31;1857416;74;28175;-62
2022/07/25 11:32:29;;;;;;;3.17;2.60;;;;;;;32.74;29.45;98787.97;1866811;76;28112;-62
2022/07/25 11:35:23;;;;;;;4.30;2.55;;;;;;;32.75;29.52;98791.80;1868820;76;28167;-61
2022/07/25 11:38:13;;;;;;;2.80;2.60;;;;;;;32.72;29.63;98781.91;1868876;76;28271;-63
2022/07/25 11:41:01;;;;;;;2.80;2.50;;;;;;;32.72;29.69;98781.91;1871834;75;28201;-62
2022/07/25 11:43:50;;;;;;;2.80;2.50;;;;;;;32.70;29.77;98778.03;1864281;76;28344;-62
2022/07/25 11:46:46;;;;;;;2.60;2.50;;;;;;;32.71;29.84;98781.08;1856165;76;28117;-61
2022/07/25 11:49:48;;;;;;;2.50;2.30;;;;;;;32.71;29.92;98778.86;1852793;76;28140;-61
2022/07/25 11:52:38;;;;;;;2.60;2.40;;;;;;;32.71;29.99;98769.13;1863547;75;28194;-61
2022/07/25 11:55:32;;;;;;;3.60;2.60;;;;;;;32.68;30.07;98767.80;1889288;74;28058;-61
2022/07/25 11:58:23;;;;;;;3.00;2.50;;;;;;;32.70;30.12;98762.73;1873350;75;28182;-61
2022/07/25 12:01:16;;;;;;;3.70;2.30;;;;;;;32.70;30.22;98754.38;1853276;74;28182;-62
2022/07/25 12:04:13;;;;;;;3.75;2.70;;;;;;;32.69;30.31;98756.94;1849415;74;28244;-61
2022/07/25 12:07:04;;;;;;;2.58;2.37;;;;;;;32.70;30.41;98759.95;1854832;76;28252;-62
2022/07/25 12:09:58;;;;;;;2.50;2.27;;;;;;;32.69;30.56;98755.55;1868495;75;28194;-62
2022/07/25 12:12:52;;;;;;;3.67;2.40;;;;;;;32.68;30.71;98753.89;1883277;75;28117;-62
2022/07/25 12:15:41;;;;;;;2.55;2.35;;;;;;;32.69;30.85;98747.20;1868760;76;28192;-62
2022/07/25 12:18:29;;;;;;;2.65;2.45;;;;;;;32.69;30.98;98751.37;1859797;74;28208;-62
2022/07/25 12:21:18;;;;;;;2.55;2.37;;;;;;;32.70;31.06;98746.60;1856540;77;28208;-61
2022/07/25 12:24:07;;;;;;;2.30;2.20;;;;;;;32.71;31.18;98744.09;1868386;76;28125;-63
2022/07/25 12:26:55;;;;;;;2.52;2.33;;;;;;;32.73;31.26;98743.19;1874181;74;29455;-62
2022/07/25 12:29:43;;;;;;;2.40;2.20;;;;;;;32.73;31.42;98738.45;1855219;75;28214;-62
2022/07/25 12:32:31;;;;;;;3.65;2.40;;;;;;;32.78;31.51;98737.50;1860637;76;28132;-63
2022/07/25 12:35:20;;;;;;;2.45;2.25;;;;;;;32.81;31.56;98729.08;1868433;76;28203;-63
2022/07/25 12:38:09;;;;;;;2.80;2.55;;;;;;;32.81;31.67;98729.08;1868480;76;28150;-63
2022/07/25 12:40:58;;;;;;;3.40;2.33;;;;;;;32.79;31.77;98725.23;1864281;76;28117;-62
2022/07/25 12:43:48;;;;;;;2.25;2.15;;;;;;;32.81;31.75;98724.34;1856607;77;28150;-63
2022/07/25 12:46:39;;;;;;;2.35;2.15;;;;;;;32.83;31.76;98724.02;1856158;77;28247;-62
2022/07/25 12:49:28;;;;;;;2.20;2.10;;;;;;;32.84;31.82;98722.89;1855933;76;28232;-63
2022/07/25 12:52:17;;;;;;;2.60;2.27;;;;;;;32.82;31.86;98718.19;1862070;76;28152;-62
2022/07/25 12:55:08;;;;;;;2.20;2.10;;;;;;;32.80;31.93;98708.78;1870671;74;28195;-62
2022/07/25 12:57:57;;;;;;;2.50;2.30;;;;;;;32.81;32.00;98715.17;1863370;76;28329;-63
2022/07/25 13:00:45;;;;;;;2.40;2.10;;;;;;;32.82;32.04;98715.41;1870416;74;28305;-62
2022/07/25 13:03:33;;;;;;;2.10;2.00;;;;;;;32.82;32.10;98715.41;1862446;76;28234;-63
2022/07/25 13:06:22;;;;;;;2.67;2.47;;;;;;;32.84;32.15;98735.41;1860205;76;28150;-61
2022/07/25 13:09:11;;;;;;;2.60;2.40;;;;;;;32.84;32.11;98754.88;1868431;76;28158;-60
2022/07/25 13:11:59;;;;;;;2.50;2.30;;;;;;;32.83;31.52;98733.19;1868248;75;28156;-60
2022/07/25 13:14:48;;;;;;;2.40;2.20;;;;;;;32.81;30.73;98738.81;1845870;76;28148;-60
2022/07/25 13:17:39;;;;;;;2.37;2.27;;;;;;;32.82;30.58;98723.19;1868550;76;29205;-60